Alplaus, NY

5:21 AM EST on November 23, 2014 (GMT -0500)
Daily Gazette | Change Station
CLOSE
Current Station
Personal Weather Station
Location: Schenectady, NY
Elevation: 295 ft
Nearby Weather Stations

Elev 295 ft 42.83 °N, 73.92 °W | Updated 20 seconds ago

Rain
Rain
34.0 °F
Feels Like 34 °F
N
0.0
Wind Variable Wind from South
Gusts 8.1 mph

Today
High -- | Low -- °F
--% Chance of Precip.
Yesterday
High -- | Low -- °F
Precip. -- in
6:57 AM 4:26 PM
New Moon, 1% visible
Pressure 30.09 in
Visibility 10.0 miles
Clouds Overcast 3900 ft
Windchill 34 °F
Dew Point 33 °F
Humidity 97%
Rainfall 0.15 in
Snow Depth Not available.
UV 0 out of 12
Pollen .10 out of 12
Air Quality Not available.
Flu Activity Not available.
METAR KALB 230951Z 17007KT 10SM -RA OVC039 04/M01 A3008 RMK AO2 SLP188 P0000 T00391011

More Conditions Fewer Conditions

Pressure 30.09 in
Visibility 10.0 miles
Clouds Overcast 3900 ft
Windchill 34 °F
Dew Point 33 °F
Humidity 97%
Rainfall 0.15 in
Snow Depth Not available.
UV 0 out of 12
Pollen .10 out of 12
Air Quality Not available.
Flu Activity Not available.
METAR KALB 230951Z 17007KT 10SM -RA OVC039 04/M01 A3008 RMK AO2 SLP188 P0000 T00391011

More Conditions Fewer Conditions

10-Day Weather Forecast

Almanac

Astronomy

Nov. 23, 2014 Rise Set
Actual Time
Civil Twilight
Nautical Twilight
Astronomical Twilight
Moon
Length of Visible Light
Length of Day
Tomorrow will be .
, % of the Moon is Illuminated

Today's Extremes

State Highs State Lows

Community

WunderPhotos

Upload Photos

1,773,030 photos uploaded!

WunderBlogs® & News

Nearby

Air Quality

  Air Quality AQ Index Pollutant
Not available.

Snow Depth

Station Depth Elevation

Earthquake Activity

City Distance Mag. Time & Date
Minimum magnitude displayed is 2.5.

Coastal Water Temperatures

Place Temperature

Nearby Weather Stations